createdAt,value
2023-01-28T00:00:47.721Z,75.00
2023-01-28T00:03:15.908Z,75.20
2023-01-28T00:05:42.961Z,75.02
2023-01-28T00:08:10.137Z,75.06
2023-01-28T00:10:39.521Z,75.04
2023-01-28T00:13:07.115Z,75.24
2023-01-28T00:15:33.544Z,74.56
2023-01-28T00:18:00.358Z,74.65
2023-01-28T00:20:26.716Z,73.84
2023-01-28T00:22:53.050Z,74.05
2023-01-28T00:25:19.613Z,74.27
2023-01-28T00:27:46.081Z,74.14
2023-01-28T00:30:12.875Z,73.74
2023-01-28T00:32:39.229Z,73.61
2023-01-28T00:35:05.976Z,73.99
2023-01-28T00:37:32.653Z,73.44
2023-01-28T00:39:58.981Z,73.86
2023-01-28T00:42:25.464Z,74.27
2023-01-28T00:44:55.042Z,73.74
2023-01-28T00:47:21.946Z,73.44
2023-01-28T00:49:48.276Z,73.99
2023-01-28T00:52:14.739Z,73.62
2023-01-28T00:54:41.111Z,73.48
2023-01-28T00:57:07.954Z,73.54
2023-01-28T00:59:34.288Z,74.15
2023-01-28T01:02:12.276Z,74.06
2023-01-28T01:04:39.934Z,73.82
2023-01-28T01:07:06.975Z,72.60
2023-01-28T01:09:33.310Z,72.75
2023-01-28T01:11:59.834Z,72.32
2023-01-28T01:14:26.157Z,72.67
2023-01-28T01:16:52.484Z,73.08
2023-01-28T01:19:18.810Z,72.10
2023-01-28T01:21:50.247Z,72.35
2023-01-28T01:24:16.838Z,72.06
2023-01-28T01:26:43.270Z,71.81
2023-01-28T01:29:09.792Z,71.88
2023-01-28T01:31:36.248Z,72.68
2023-01-28T01:34:02.636Z,72.74
2023-01-28T01:36:29.066Z,72.21
2023-01-28T01:38:56.416Z,71.81
2023-01-28T01:41:31.971Z,72.75
2023-01-28T01:44:03.699Z,72.12
2023-01-28T01:46:38.189Z,72.87
2023-01-28T01:49:24.831Z,72.93
2023-01-28T01:51:57.763Z,72.45
2023-01-28T01:54:28.390Z,72.75
2023-01-28T01:56:58.481Z,72.15
2023-01-28T01:59:32.126Z,71.92
2023-01-28T02:02:03.349Z,72.27
2023-01-28T02:04:35.432Z,72.20
2023-01-28T02:07:02.622Z,71.90
2023-01-28T02:09:36.077Z,71.54
2023-01-28T02:12:08.426Z,71.81
2023-01-28T02:14:41.079Z,71.36
2023-01-28T02:17:08.896Z,70.69
2023-01-28T02:19:40.721Z,70.42
2023-01-28T02:22:49.193Z,70.25
2023-01-28T02:25:34.628Z,70.59
2023-01-28T02:28:27.715Z,71.11
2023-01-28T02:31:01.015Z,71.41
2023-01-28T02:33:35.858Z,70.18
2023-01-28T02:36:12.462Z,71.25
2023-01-28T02:38:46.586Z,71.16
2023-01-28T02:41:20.806Z,71.38
2023-01-28T02:43:48.205Z,70.58
2023-01-28T02:46:45.474Z,71.28
2023-01-28T02:49:16.351Z,70.47
2023-01-28T02:52:00.918Z,71.57
2023-01-28T02:54:52.050Z,71.13
2023-01-28T02:57:42.944Z,70.05
2023-01-28T03:00:25.853Z,71.53
2023-01-28T03:03:02.147Z,70.69
2023-01-28T03:05:37.717Z,71.18
2023-01-28T03:08:26.707Z,70.81
2023-01-28T03:11:15.020Z,70.52
2023-01-28T03:14:02.670Z,71.21
2023-01-28T03:16:51.119Z,71.31
2023-01-28T03:19:36.915Z,70.95
2023-01-28T03:22:22.885Z,71.48
2023-01-28T03:25:11.703Z,71.74
2023-01-28T03:28:09.725Z,71.63
2023-01-28T03:31:13.777Z,71.69
2023-01-28T03:34:06.187Z,71.03
2023-01-28T03:36:51.280Z,71.59
2023-01-28T03:39:37.163Z,71.61
2023-01-28T03:42:11.211Z,72.14
2023-01-28T03:44:51.880Z,71.08
2023-01-28T03:47:27.241Z,71.56
2023-01-28T03:49:55.808Z,71.80
2023-01-28T03:52:31.815Z,72.05
2023-01-28T03:55:15.976Z,71.29
2023-01-28T03:57:44.643Z,69.84
2023-01-28T04:00:12.500Z,69.70
2023-01-28T04:02:41.851Z,70.29
2023-01-28T04:05:12.835Z,69.75
2023-01-28T04:07:44.785Z,70.06
2023-01-28T04:10:39.130Z,70.02
2023-01-28T04:13:13.518Z,70.67
2023-01-28T04:15:40.264Z,70.73
2023-01-28T04:18:09.848Z,69.44
2023-01-28T04:20:37.846Z,68.89
2023-01-28T04:23:04.902Z,68.43
2023-01-28T04:25:32.070Z,68.15
2023-01-28T04:27:59.040Z,68.43
2023-01-28T04:30:28.519Z,68.33
2023-01-28T04:33:06.581Z,68.28
2023-01-28T04:35:51.062Z,69.03
2023-01-28T04:38:24.216Z,68.60
2023-01-28T04:41:00.125Z,68.62
2023-01-28T04:43:30.344Z,68.31
2023-01-28T04:46:19.403Z,68.63
2023-01-28T04:48:55.381Z,69.66
2023-01-28T04:51:39.267Z,68.26
2023-01-28T04:54:11.537Z,68.74
2023-01-28T04:56:37.929Z,67.35
2023-01-28T04:59:04.510Z,68.89
2023-01-28T05:01:32.219Z,68.23
2023-01-28T05:03:59.551Z,68.21
2023-01-28T05:06:27.687Z,67.82
2023-01-28T05:08:56.434Z,69.17
2023-01-28T05:11:22.814Z,68.79
2023-01-28T05:13:54.909Z,68.79
2023-01-28T05:16:21.333Z,68.75
2023-01-28T05:18:48.031Z,68.36
2023-01-28T05:21:16.305Z,67.93
2023-01-28T05:23:44.036Z,68.19
2023-01-28T05:26:10.628Z,67.46
2023-01-28T05:28:38.030Z,67.94
2023-01-28T05:31:07.553Z,68.52
2023-01-28T05:33:34.392Z,68.45
2023-01-28T05:36:02.156Z,67.71
2023-01-28T05:38:28.581Z,68.40
2023-01-28T05:40:55.025Z,68.23
2023-01-28T05:43:22.088Z,67.95
2023-01-28T05:46:08.620Z,67.66
2023-01-28T05:48:54.925Z,68.80
2023-01-28T05:51:36.127Z,68.56
2023-01-28T05:54:03.288Z,68.19
2023-01-28T05:56:30.352Z,68.76
2023-01-28T05:58:56.713Z,68.95
2023-01-28T06:01:23.234Z,68.68
2023-01-28T06:03:53.535Z,68.11
2023-01-28T06:06:20.028Z,68.34
2023-01-28T06:08:46.801Z,68.90
2023-01-28T06:11:19.962Z,68.04
2023-01-28T06:13:47.079Z,67.81
2023-01-28T06:16:42.593Z,68.17
2023-01-28T06:19:28.153Z,68.24
2023-01-28T06:21:55.139Z,66.70
2023-01-28T06:24:21.581Z,67.46
2023-01-28T06:26:48.157Z,66.91
2023-01-28T06:29:15.031Z,66.52
2023-01-28T06:31:41.482Z,67.53
2023-01-28T06:34:09.831Z,66.95
2023-01-28T06:36:37.981Z,67.85
2023-01-28T06:39:04.673Z,67.83
2023-01-28T06:41:30.978Z,66.76
2023-01-28T06:43:57.550Z,67.25
2023-01-28T06:46:24.774Z,67.78
2023-01-28T06:48:51.433Z,68.27
2023-01-28T06:51:17.747Z,67.62
2023-01-28T06:53:45.971Z,68.00
2023-01-28T06:56:12.494Z,66.81
2023-01-28T06:58:38.815Z,67.65
2023-01-28T07:01:10.115Z,67.38
2023-01-28T07:03:37.063Z,68.13
2023-01-28T07:06:03.605Z,68.78
2023-01-28T07:08:29.954Z,68.50
2023-01-28T07:10:56.277Z,68.54
2023-01-28T07:13:22.608Z,69.29
2023-01-28T07:15:49.632Z,68.27
2023-01-28T07:18:16.160Z,67.90
2023-01-28T07:20:42.484Z,68.70
2023-01-28T07:23:08.807Z,67.75
2023-01-28T07:25:35.222Z,67.93
2023-01-28T07:28:01.590Z,69.57
2023-01-28T07:30:28.024Z,68.96
2023-01-28T07:32:59.006Z,68.09
2023-01-28T07:35:26.251Z,68.39
2023-01-28T07:37:56.874Z,68.30
2023-01-28T07:40:24.494Z,68.97
2023-01-28T07:42:52.073Z,69.90
2023-01-28T07:45:22.340Z,70.19
2023-01-28T07:48:00.249Z,70.32
2023-01-28T07:50:29.111Z,70.40
2023-01-28T07:52:56.786Z,69.71
2023-01-28T07:55:23.735Z,69.23
2023-01-28T07:57:55.490Z,68.30
2023-01-28T08:00:23.365Z,69.54
2023-01-28T08:02:50.433Z,69.53
2023-01-28T08:05:21.370Z,69.49
2023-01-28T08:07:48.779Z,70.42
2023-01-28T08:10:19.093Z,70.02
2023-01-28T08:12:59.043Z,70.79
2023-01-28T08:15:26.124Z,69.06
2023-01-28T08:17:59.367Z,69.75
2023-01-28T08:20:27.312Z,69.75
2023-01-28T08:22:54.351Z,69.27
2023-01-28T08:25:21.080Z,68.28
2023-01-28T08:27:47.436Z,69.49
2023-01-28T08:30:14.240Z,69.35
2023-01-28T08:32:40.774Z,69.18
2023-01-28T08:35:07.775Z,68.94
2023-01-28T08:37:34.179Z,68.49
2023-01-28T08:40:00.703Z,68.82
2023-01-28T08:42:27.066Z,68.80
2023-01-28T08:44:53.406Z,68.01
2023-01-28T08:47:20.243Z,68.80
2023-01-28T08:49:46.578Z,68.81
2023-01-28T08:52:12.914Z,69.42
2023-01-28T08:54:39.232Z,69.04
2023-01-28T08:57:05.616Z,69.30
2023-01-28T08:59:31.920Z,67.78
2023-01-28T09:01:58.577Z,68.68
2023-01-28T09:04:24.925Z,68.49
2023-01-28T09:06:51.279Z,66.63
2023-01-28T09:09:17.705Z,67.89
2023-01-28T09:11:44.127Z,66.81
2023-01-28T09:14:10.433Z,66.30
2023-01-28T09:16:36.766Z,67.50
2023-01-28T09:19:03.112Z,67.99
2023-01-28T09:21:29.494Z,68.60
2023-01-28T09:23:56.749Z,68.07
2023-01-28T09:26:23.084Z,68.63
2023-01-28T09:28:49.406Z,69.06
2023-01-28T09:31:15.844Z,67.60
2023-01-28T09:33:42.263Z,68.00
2023-01-28T09:36:11.341Z,66.49
2023-01-28T09:38:37.769Z,66.82
2023-01-28T09:41:21.418Z,68.12
2023-01-28T09:44:10.967Z,68.82
2023-01-28T09:46:38.375Z,68.30
2023-01-28T09:49:20.048Z,68.05
2023-01-28T09:51:53.747Z,68.98
2023-01-28T09:54:44.178Z,68.42
2023-01-28T09:57:20.671Z,68.46
2023-01-28T09:59:47.244Z,69.00
2023-01-28T10:02:44.392Z,67.51
2023-01-28T10:05:20.216Z,67.27
2023-01-28T10:08:05.734Z,66.45
2023-01-28T10:10:41.986Z,66.41
2023-01-28T10:13:37.845Z,66.36
2023-01-28T10:16:09.137Z,64.53
2023-01-28T10:18:43.598Z,64.83
2023-01-28T10:21:16.716Z,65.75
2023-01-28T10:24:04.790Z,65.52
2023-01-28T10:26:36.390Z,64.95
2023-01-28T10:29:19.503Z,66.39
2023-01-28T10:31:55.076Z,65.94
2023-01-28T10:34:22.623Z,65.06
2023-01-28T10:36:50.299Z,64.50
2023-01-28T10:39:19.795Z,65.02
2023-01-28T10:41:57.453Z,63.84
2023-01-28T10:44:42.226Z,64.92
2023-01-28T10:47:14.479Z,65.02
2023-01-28T10:49:56.223Z,64.51
2023-01-28T10:52:22.564Z,65.62
2023-01-28T10:54:59.433Z,65.60
2023-01-28T10:57:25.840Z,65.05
2023-01-28T10:59:52.242Z,64.55
2023-01-28T11:02:26.491Z,63.19
2023-01-28T11:05:02.921Z,64.68
2023-01-28T11:07:29.312Z,63.32
2023-01-28T11:09:55.650Z,64.03
2023-01-28T11:12:27.640Z,65.82
2023-01-28T11:15:02.514Z,66.37
2023-01-28T11:17:32.683Z,66.58
2023-01-28T11:20:01.698Z,66.21
2023-01-28T11:22:34.105Z,66.09
2023-01-28T11:25:04.697Z,65.35
2023-01-28T11:27:32.554Z,65.60
2023-01-28T11:30:04.496Z,65.28
2023-01-28T11:32:31.255Z,63.33
2023-01-28T11:34:58.218Z,64.67
2023-01-28T11:37:27.305Z,64.35
2023-01-28T11:40:23.563Z,63.25
2023-01-28T11:42:52.261Z,63.41
2023-01-28T11:45:23.393Z,64.09
2023-01-28T11:48:06.541Z,65.28
2023-01-28T11:51:09.302Z,65.07
2023-01-28T11:53:58.557Z,64.99
2023-01-28T11:57:01.744Z,64.08
2023-01-28T11:59:49.602Z,64.27
2023-01-28T12:03:10.197Z,63.74
2023-01-28T12:05:50.116Z,64.58
2023-01-28T12:08:28.340Z,63.65
2023-01-28T12:11:20.795Z,63.84
2023-01-28T12:14:12.571Z,64.76
2023-01-28T12:17:06.561Z,64.19
2023-01-28T12:19:46.601Z,64.44
2023-01-28T12:22:22.739Z,64.73
2023-01-28T12:24:54.867Z,64.80
2023-01-28T12:27:50.919Z,64.10
2023-01-28T12:30:42.820Z,64.24
2023-01-28T12:33:33.306Z,65.10
2023-01-28T12:36:43.109Z,64.19
2023-01-28T12:39:47.993Z,62.65
2023-01-28T12:42:23.207Z,63.16
2023-01-28T12:44:59.742Z,63.08
2023-01-28T12:47:36.272Z,62.82
2023-01-28T12:50:14.550Z,62.19
2023-01-28T12:52:47.120Z,62.87
2023-01-28T12:55:28.902Z,62.78
2023-01-28T12:57:58.586Z,62.04
2023-01-28T13:00:33.523Z,61.59
2023-01-28T13:03:18.918Z,60.88
2023-01-28T13:05:56.935Z,61.81
2023-01-28T13:08:25.586Z,62.67
2023-01-28T13:10:53.664Z,63.07
2023-01-28T13:13:29.719Z,63.36
2023-01-28T13:15:56.553Z,63.33
2023-01-28T13:18:45.215Z,63.18
2023-01-28T13:21:34.636Z,62.59
2023-01-28T13:24:09.289Z,61.43
2023-01-28T13:26:42.256Z,60.40
2023-01-28T13:29:14.827Z,60.61
2023-01-28T13:31:53.466Z,60.64
2023-01-28T13:34:59.768Z,61.58
2023-01-28T13:37:44.141Z,61.81
2023-01-28T13:40:13.459Z,62.25
2023-01-28T13:42:41.024Z,61.98
2023-01-28T13:45:23.094Z,62.21
2023-01-28T13:48:02.280Z,62.05
2023-01-28T13:50:39.302Z,62.20
2023-01-28T13:53:28.228Z,61.20
2023-01-28T13:55:58.736Z,61.13
2023-01-28T13:58:49.283Z,61.66
2023-01-28T14:01:34.506Z,61.16
2023-01-28T14:04:31.244Z,61.55
2023-01-28T14:07:22.168Z,61.95
2023-01-28T14:10:03.384Z,62.10
2023-01-28T14:12:56.178Z,61.26
2023-01-28T14:15:33.636Z,60.74
2023-01-28T14:18:00.152Z,61.18
2023-01-28T14:20:37.512Z,61.78
2023-01-28T14:23:06.151Z,62.37
2023-01-28T14:25:47.489Z,61.65
2023-01-28T14:28:21.337Z,62.08
2023-01-28T14:30:53.504Z,62.09
2023-01-28T14:33:22.332Z,62.25
2023-01-28T14:35:49.763Z,62.25
2023-01-28T14:38:21.784Z,62.38
2023-01-28T14:40:53.389Z,62.46
2023-01-28T14:43:23.687Z,62.01
2023-01-28T14:46:19.507Z,61.96
2023-01-28T14:49:17.205Z,62.32
2023-01-28T14:52:08.809Z,62.35
2023-01-28T14:54:38.176Z,63.46
2023-01-28T14:57:19.531Z,63.52
2023-01-28T14:59:54.162Z,63.96
2023-01-28T15:02:28.993Z,63.21
2023-01-28T15:05:07.824Z,63.65
2023-01-28T15:07:34.134Z,63.77
2023-01-28T15:10:06.840Z,63.49
2023-01-28T15:12:37.527Z,63.14
2023-01-28T15:15:40.349Z,62.90
2023-01-28T15:18:26.614Z,63.23
2023-01-28T15:20:55.084Z,63.77
2023-01-28T15:23:40.319Z,64.71
2023-01-28T15:26:12.227Z,65.78
2023-01-28T15:28:39.850Z,65.58
2023-01-28T15:31:07.051Z,66.17
2023-01-28T15:33:33.563Z,65.61
2023-01-28T15:36:00.199Z,65.97
2023-01-28T15:38:28.741Z,65.48
2023-01-28T15:41:00.713Z,65.80
2023-01-28T15:43:33.166Z,65.51
2023-01-28T15:46:00.508Z,65.30
2023-01-28T15:48:30.834Z,65.10
2023-01-28T15:50:59.953Z,66.16
2023-01-28T15:53:28.210Z,65.45
2023-01-28T15:56:14.549Z,66.47
2023-01-28T15:58:41.792Z,66.13
2023-01-28T16:01:08.210Z,67.66
2023-01-28T16:03:36.961Z,66.55
2023-01-28T16:06:09.577Z,68.02
2023-01-28T16:08:40.689Z,68.46
2023-01-28T16:11:09.509Z,68.80
2023-01-28T16:13:42.684Z,67.98
2023-01-28T16:16:10.260Z,67.89
2023-01-28T16:18:43.268Z,69.31
2023-01-28T16:21:12.625Z,69.25
2023-01-28T16:23:39.904Z,68.60
2023-01-28T16:26:21.135Z,70.02
2023-01-28T16:28:47.553Z,68.86
2023-01-28T16:31:14.200Z,68.82
2023-01-28T16:33:40.619Z,70.27
2023-01-28T16:36:10.897Z,70.28
2023-01-28T16:38:37.248Z,69.60
2023-01-28T16:41:03.789Z,70.17
2023-01-28T16:43:30.476Z,71.28
2023-01-28T16:45:56.848Z,69.92
2023-01-28T16:48:23.301Z,70.35
2023-01-28T16:50:49.762Z,71.37
2023-01-28T16:53:20.968Z,71.14
2023-01-28T16:55:50.742Z,71.47
2023-01-28T16:58:21.434Z,70.15
2023-01-28T17:00:47.808Z,71.37
2023-01-28T17:03:14.248Z,71.04
2023-01-28T17:05:40.646Z,70.77
2023-01-28T17:08:07.281Z,71.69
2023-01-28T17:10:33.961Z,71.62
2023-01-28T17:13:00.350Z,72.04
2023-01-28T17:15:26.694Z,72.62
2023-01-28T17:17:53.582Z,72.09
2023-01-28T17:20:19.972Z,73.12
2023-01-28T17:22:46.359Z,72.27
2023-01-28T17:25:14.511Z,72.27
2023-01-28T17:27:41.154Z,72.87
2023-01-28T17:30:08.109Z,72.66
2023-01-28T17:32:34.482Z,73.58
2023-01-28T17:35:01.123Z,73.74
2023-01-28T17:37:27.438Z,73.51
2023-01-28T17:39:53.746Z,74.10
2023-01-28T17:42:20.069Z,73.88
2023-01-28T17:44:46.430Z,74.03
2023-01-28T17:47:12.772Z,74.13
2023-01-28T17:49:39.096Z,74.31
2023-01-28T17:52:05.677Z,74.24
2023-01-28T17:54:32.105Z,74.26
2023-01-28T17:56:58.547Z,74.73
2023-01-28T17:59:25.868Z,75.07
2023-01-28T18:01:54.449Z,74.08
2023-01-28T18:04:20.823Z,74.70
2023-01-28T18:06:49.004Z,74.18
2023-01-28T18:09:15.384Z,74.53
2023-01-28T18:11:41.719Z,74.69
2023-01-28T18:14:08.147Z,74.56
2023-01-28T18:16:34.489Z,74.35
2023-01-28T18:19:00.842Z,74.91
2023-01-28T18:21:51.722Z,75.80
2023-01-28T18:24:19.959Z,75.51
2023-01-28T18:26:46.417Z,75.36
2023-01-28T18:29:16.617Z,75.42
2023-01-28T18:31:43.186Z,76.01
2023-01-28T18:34:09.621Z,75.57
2023-01-28T18:36:35.944Z,76.35
2023-01-28T18:39:02.290Z,76.23
2023-01-28T18:41:28.625Z,76.81
2023-01-28T18:43:54.945Z,76.16
2023-01-28T18:46:21.328Z,76.60
2023-01-28T18:48:47.722Z,76.54
2023-01-28T18:51:28.818Z,77.03
2023-01-28T18:53:59.758Z,77.29
2023-01-28T18:56:27.716Z,77.74
2023-01-28T18:59:03.321Z,76.90
2023-01-28T19:01:31.321Z,77.18
2023-01-28T19:03:58.353Z,77.40
2023-01-28T19:06:27.065Z,77.42
2023-01-28T19:08:59.871Z,77.55
2023-01-28T19:11:29.146Z,79.00
2023-01-28T19:13:56.885Z,78.46
2023-01-28T19:16:23.764Z,77.90
2023-01-28T19:18:55.113Z,78.88
2023-01-28T19:21:22.904Z,78.72
2023-01-28T19:24:01.663Z,79.20
2023-01-28T19:26:30.350Z,79.00
2023-01-28T19:28:57.099Z,79.40
2023-01-28T19:31:25.116Z,79.13
2023-01-28T19:33:57.092Z,79.23
2023-01-28T19:36:26.180Z,79.86
2023-01-28T19:38:56.362Z,79.34
2023-01-28T19:41:22.941Z,79.93
2023-01-28T19:43:49.344Z,78.40
2023-01-28T19:46:17.610Z,78.60
2023-01-28T19:48:45.365Z,80.33
2023-01-28T19:51:12.965Z,79.41
2023-01-28T19:53:40.605Z,79.14
2023-01-28T19:56:10.691Z,79.35
2023-01-28T19:58:39.949Z,80.69
2023-01-28T20:01:08.491Z,79.78
2023-01-28T20:03:35.657Z,79.97
2023-01-28T20:06:03.841Z,80.55
2023-01-28T20:08:30.536Z,80.02
2023-01-28T20:11:08.750Z,81.01
2023-01-28T20:13:36.437Z,80.26
2023-01-28T20:16:07.544Z,81.28
2023-01-28T20:18:35.297Z,81.71
2023-01-28T20:21:01.926Z,81.64
2023-01-28T20:23:28.457Z,80.82
2023-01-28T20:25:58.605Z,80.81
2023-01-28T20:28:25.373Z,81.72
2023-01-28T20:30:53.527Z,82.08
2023-01-28T20:33:20.716Z,82.39
2023-01-28T20:35:47.065Z,82.57
2023-01-28T20:38:14.529Z,81.50
2023-01-28T20:40:42.270Z,81.72
2023-01-28T20:43:09.462Z,82.16
2023-01-28T20:45:35.838Z,81.51
2023-01-28T20:48:02.386Z,82.12
2023-01-28T20:50:28.733Z,82.23
2023-01-28T20:52:55.141Z,81.67
2023-01-28T20:55:21.571Z,82.80
2023-01-28T20:57:48.366Z,83.07
2023-01-28T21:00:15.555Z,82.08
2023-01-28T21:02:44.176Z,82.32
2023-01-28T21:05:10.690Z,82.64
2023-01-28T21:07:37.359Z,81.61
2023-01-28T21:10:04.834Z,82.78
2023-01-28T21:12:31.387Z,82.59
2023-01-28T21:14:57.872Z,82.57
2023-01-28T21:17:25.352Z,81.60
2023-01-28T21:19:52.094Z,83.56
2023-01-28T21:22:19.978Z,82.51
2023-01-28T21:24:48.736Z,82.42
2023-01-28T21:27:15.082Z,83.86
2023-01-28T21:29:41.955Z,83.36
2023-01-28T21:32:08.494Z,83.96
2023-01-28T21:34:34.903Z,82.44
2023-01-28T21:37:01.217Z,84.12
2023-01-28T21:39:27.554Z,83.50
2023-01-28T21:41:54.107Z,82.64
2023-01-28T21:44:20.466Z,83.63
2023-01-28T21:46:46.943Z,83.66
2023-01-28T21:49:13.312Z,83.85
2023-01-28T21:51:39.906Z,83.18
2023-01-28T21:54:11.347Z,84.56
2023-01-28T21:56:37.790Z,84.67
2023-01-28T21:59:23.311Z,84.00
2023-01-28T22:01:49.755Z,83.67
2023-01-28T22:04:16.197Z,83.59
2023-01-28T22:06:42.936Z,82.69
2023-01-28T22:09:13.521Z,82.68
2023-01-28T22:11:41.311Z,84.10
2023-01-28T22:14:08.199Z,82.32
2023-01-28T22:16:34.568Z,83.39
2023-01-28T22:19:01.008Z,82.21
2023-01-28T22:21:27.987Z,83.89
2023-01-28T22:23:54.451Z,82.23
2023-01-28T22:26:20.863Z,83.63
2023-01-28T22:28:47.227Z,83.22
2023-01-28T22:31:16.256Z,82.12
2023-01-28T22:33:43.774Z,83.02
2023-01-28T22:36:15.593Z,83.85
2023-01-28T22:38:43.600Z,83.90
2023-01-28T22:41:13.349Z,84.22
2023-01-28T22:43:40.826Z,82.92
2023-01-28T22:46:07.650Z,82.85
2023-01-28T22:48:37.083Z,84.10
2023-01-28T22:51:09.276Z,84.75
2023-01-28T22:53:35.652Z,83.93
2023-01-28T22:56:02.652Z,83.54
2023-01-28T22:58:31.509Z,83.84
2023-01-28T23:00:58.503Z,84.91
2023-01-28T23:03:25.522Z,84.69
2023-01-28T23:05:52.228Z,84.05
2023-01-28T23:08:18.763Z,83.95
2023-01-28T23:10:49.977Z,83.94
2023-01-28T23:13:18.391Z,83.64
2023-01-28T23:16:04.360Z,83.48
2023-01-28T23:18:49.041Z,83.40
2023-01-28T23:21:36.816Z,83.91
2023-01-28T23:24:19.451Z,83.98
2023-01-28T23:26:54.247Z,83.63
2023-01-28T23:29:24.997Z,83.17
2023-01-28T23:32:01.198Z,84.35
2023-01-28T23:34:31.658Z,84.40
2023-01-28T23:36:58.480Z,83.09
2023-01-28T23:39:24.812Z,83.38
2023-01-28T23:41:51.146Z,83.62
2023-01-28T23:44:18.481Z,83.66
2023-01-28T23:46:44.933Z,83.64
2023-01-28T23:49:11.277Z,83.88
2023-01-28T23:51:37.596Z,83.43
2023-01-28T23:54:04.050Z,84.39
2023-01-28T23:56:30.381Z,84.44
2023-01-28T23:58:56.850Z,83.12
